Time;durP1;ratioP1;P1;durP2;ratioP2;P2;SDS_P1;SDS_P2;PMS_P1;PMS_P2;Temp;Humidity;BMP_temperature;BMP_pressure;BME280_temperature;BME280_humidity;BME280_pressure;Samples;Min_cycle;Max_cycle;Signal;HPM_P1;HPM_P2
2023/12/23 00:00:12;;;;;;;9.30;8.70;;;4.00;99.90;;;;;;5017697;28;20049;-82
2023/12/23 00:02:37;;;;;;;9.70;9.02;;;4.00;99.90;;;;;;4981562;28;20493;-81
2023/12/23 00:05:03;;;;;;;10.20;9.35;;;4.00;99.90;;;;;;4998379;28;20111;-81
2023/12/23 00:07:29;;;;;;;9.85;8.95;;;4.00;99.90;;;;;;5014641;28;20042;-82
2023/12/23 00:09:54;;;;;;;9.93;9.18;;;4.00;99.90;;;;;;4981566;28;20077;-81
2023/12/23 00:12:20;;;;;;;10.38;9.35;;;4.10;99.90;;;;;;4998054;28;20045;-82
2023/12/23 00:14:46;;;;;;;9.32;8.73;;;4.10;99.90;;;;;;5017443;28;20053;-82
2023/12/23 00:17:11;;;;;;;10.43;9.10;;;4.80;99.90;;;;;;5017816;28;20429;-82
2023/12/23 00:19:37;;;;;;;9.45;8.55;;;4.60;99.90;;;;;;5017472;28;20080;-84
2023/12/23 00:22:03;;;;;;;10.57;9.80;;;5.10;99.90;;;;;;5017697;28;20118;-82
2023/12/23 00:24:31;;;;;;;9.48;8.73;;;4.10;99.90;;;;;;5017467;28;20056;-83
2023/12/23 00:26:57;;;;;;;9.95;9.35;;;4.50;99.90;;;;;;5034363;28;20140;-82
2023/12/23 00:29:26;;;;;;;9.50;8.88;;;4.50;99.90;;;;;;5032768;28;20099;-82
2023/12/23 00:31:52;;;;;;;9.18;8.55;;;5.00;99.90;;;;;;5001408;28;20161;-82
2023/12/23 00:34:19;;;;;;;9.73;8.85;;;4.10;99.90;;;;;;5016830;28;20049;-82
2023/12/23 00:36:44;;;;;;;9.05;8.30;;;4.60;99.90;;;;;;5017411;28;20052;-81
2023/12/23 00:39:10;;;;;;;9.93;9.00;;;4.10;99.90;;;;;;5017286;28;20468;-83
2023/12/23 00:41:37;;;;;;;10.05;9.25;;;4.40;99.90;;;;;;5016967;28;20140;-81
2023/12/23 00:44:03;;;;;;;8.35;7.85;;;4.20;99.90;;;;;;5000984;28;20050;-82
2023/12/23 00:46:28;;;;;;;9.77;7.88;;;4.20;99.90;;;;;;5017059;28;20099;-82
2023/12/23 00:48:55;;;;;;;9.18;8.35;;;4.60;99.90;;;;;;5000929;28;20045;-81
2023/12/23 00:51:21;;;;;;;7.45;6.95;;;4.40;99.90;;;;;;5016906;28;20049;-82
2023/12/23 00:53:47;;;;;;;8.10;7.40;;;4.50;99.90;;;;;;5017397;28;20406;-81
2023/12/23 00:56:22;;;;;;;7.53;6.95;;;4.50;99.90;;;;;;5017062;28;20051;-80
2023/12/23 00:58:49;;;;;;;6.57;6.20;;;4.60;99.90;;;;;;5017024;28;20049;-82
2023/12/23 01:01:15;;;;;;;10.43;6.63;;;5.30;99.90;;;;;;5033621;28;20041;-82
2023/12/23 01:03:41;;;;;;;7.38;6.65;;;5.20;99.90;;;;;;5032691;28;20053;-84
2023/12/23 01:06:07;;;;;;;9.60;7.47;;;4.80;99.90;;;;;;5016816;28;20059;-82
2023/12/23 01:08:32;;;;;;;11.15;6.40;;;5.00;99.90;;;;;;5000608;28;20072;-82
2023/12/23 01:10:58;;;;;;;7.93;7.30;;;5.10;99.90;;;;;;5000098;28;20053;-81
2023/12/23 01:13:24;;;;;;;8.13;6.65;;;5.00;99.90;;;;;;5000566;28;20042;-81
2023/12/23 01:15:49;;;;;;;9.10;6.13;;;5.00;99.90;;;;;;5016723;28;20505;-83
2023/12/23 01:18:16;;;;;;;9.05;6.60;;;5.20;99.90;;;;;;5016340;28;20050;-83
2023/12/23 01:20:42;;;;;;;7.07;6.45;;;5.20;99.90;;;;;;5000680;28;20060;-82
2023/12/23 01:23:09;;;;;;;8.20;7.38;;;5.10;99.90;;;;;;5033042;28;20393;-80
2023/12/23 01:25:34;;;;;;;7.28;6.68;;;5.00;99.90;;;;;;5016655;28;20363;-80
2023/12/23 01:28:04;;;;;;;7.38;6.75;;;5.00;99.90;;;;;;5016391;28;20075;-83
2023/12/23 01:30:36;;;;;;;7.65;7.00;;;5.00;99.90;;;;;;5000785;28;20053;-82
2023/12/23 01:33:02;;;;;;;8.35;7.65;;;5.00;99.90;;;;;;5032895;28;20085;-82
2023/12/23 01:35:27;;;;;;;9.45;8.40;;;5.00;99.90;;;;;;5015944;28;20178;-83
2023/12/23 01:37:53;;;;;;;6.90;6.35;;;5.10;99.90;;;;;;4999971;28;20059;-81
2023/12/23 01:40:19;;;;;;;7.53;6.53;;;5.10;99.90;;;;;;4999187;28;20049;-81
2023/12/23 01:42:45;;;;;;;8.07;7.28;;;6.00;99.90;;;;;;5032833;28;20053;-81
2023/12/23 01:45:11;;;;;;;8.73;7.03;;;5.70;99.90;;;;;;5000120;28;20171;-81
2023/12/23 01:47:45;;;;;;;7.95;7.18;;;5.60;99.90;;;;;;5015766;28;20477;-81
2023/12/23 01:50:11;;;;;;;7.70;7.07;;;5.20;99.90;;;;;;5032385;28;20046;-81
2023/12/23 01:52:38;;;;;;;9.35;6.80;;;5.20;99.90;;;;;;4999879;28;20394;-81
2023/12/23 01:55:08;;;;;;;7.28;6.72;;;5.30;99.90;;;;;;5032527;28;20057;-82
2023/12/23 01:57:34;;;;;;;8.05;5.05;;;5.20;99.90;;;;;;5016132;28;20061;-81
2023/12/23 02:00:01;;;;;;;9.27;7.25;;;6.10;99.90;;;;;;4999384;28;20482;-81
2023/12/23 02:02:28;;;;;;;6.90;5.75;;;5.50;99.90;;;;;;5015676;28;20050;-84
2023/12/23 02:04:55;;;;;;;11.65;6.65;;;5.30;99.90;;;;;;5015663;28;20049;-83
2023/12/23 02:07:21;;;;;;;7.53;6.07;;;5.60;99.90;;;;;;5015839;28;20049;-82
2023/12/23 02:09:46;;;;;;;8.50;5.65;;;5.40;99.90;;;;;;5015382;28;20052;-83
2023/12/23 02:12:28;;;;;;;7.82;7.20;;;5.60;99.90;;;;;;4999191;28;20045;-82
2023/12/23 02:15:07;;;;;;;5.60;5.07;;;5.30;99.90;;;;;;4996205;28;20444;-81
2023/12/23 02:17:33;;;;;;;5.85;5.28;;;5.30;99.90;;;;;;4996111;28;20088;-83
2023/12/23 02:19:59;;;;;;;15.38;6.43;;;5.30;99.90;;;;;;5000110;28;20073;-83
2023/12/23 02:22:24;;;;;;;6.07;5.53;;;5.30;99.90;;;;;;5015648;28;20509;-83
2023/12/23 02:24:50;;;;;;;5.35;5.05;;;5.50;99.90;;;;;;5015447;28;20094;-82
2023/12/23 02:27:21;;;;;;;7.97;6.38;;;5.20;99.90;;;;;;5031859;28;20132;-82
2023/12/23 02:29:48;;;;;;;5.95;5.63;;;5.40;99.90;;;;;;5031839;28;20419;-81
2023/12/23 02:32:16;;;;;;;6.28;5.50;;;5.70;99.90;;;;;;5015502;28;20494;-82
2023/12/23 02:34:41;;;;;;;6.30;5.70;;;5.30;99.90;;;;;;5015046;28;20049;-82
2023/12/23 02:37:07;;;;;;;6.68;6.07;;;5.30;99.90;;;;;;5015187;28;20041;-83
2023/12/23 02:39:33;;;;;;;16.15;6.35;;;5.30;99.90;;;;;;4998983;28;20049;-82
2023/12/23 02:41:58;;;;;;;7.10;6.18;;;5.30;99.90;;;;;;5014670;28;20053;-81
2023/12/23 02:44:24;;;;;;;7.30;6.78;;;5.60;99.90;;;;;;5015299;28;20042;-82
2023/12/23 02:46:50;;;;;;;8.45;7.40;;;5.30;99.90;;;;;;5015311;28;20041;-81
2023/12/23 02:49:15;;;;;;;9.88;7.63;;;5.20;99.90;;;;;;5014729;28;20041;-81
2023/12/23 02:51:41;;;;;;;8.02;7.22;;;5.30;99.90;;;;;;5015681;28;20048;-79
2023/12/23 02:54:07;;;;;;;7.95;7.25;;;5.10;99.90;;;;;;5032504;28;20049;-81
2023/12/23 02:56:32;;;;;;;7.65;7.00;;;5.10;99.90;;;;;;5015731;28;20053;-81
2023/12/23 02:58:58;;;;;;;8.45;7.85;;;5.10;99.90;;;;;;5032777;28;20046;-80
2023/12/23 03:01:24;;;;;;;11.10;8.30;;;5.10;99.90;;;;;;5032509;28;20046;-82
2023/12/23 03:03:49;;;;;;;8.13;7.40;;;5.20;99.90;;;;;;5032345;28;20081;-82
2023/12/23 03:06:15;;;;;;;8.32;7.63;;;5.10;99.90;;;;;;5015997;28;20055;-81
2023/12/23 03:08:41;;;;;;;8.35;7.60;;;5.10;99.90;;;;;;5032574;28;20497;-81
2023/12/23 03:11:08;;;;;;;7.90;7.00;;;5.40;99.90;;;;;;5016027;28;20142;-80
2023/12/23 03:13:33;;;;;;;7.85;7.22;;;5.00;99.90;;;;;;5032342;28;20052;-81
2023/12/23 03:15:59;;;;;;;7.93;7.28;;;5.00;99.90;;;;;;5032399;28;20053;-80
2023/12/23 03:18:25;;;;;;;7.28;6.72;;;5.30;99.90;;;;;;5032375;28;20473;-81
2023/12/23 03:20:51;;;;;;;7.45;6.95;;;5.20;99.90;;;;;;5033354;28;20509;-81
2023/12/23 03:23:17;;;;;;;8.50;7.90;;;4.80;99.90;;;;;;5015848;28;20053;-80
2023/12/23 03:25:42;;;;;;;11.68;8.50;;;5.00;99.90;;;;;;5032271;28;20049;-81
2023/12/23 03:28:09;;;;;;;8.15;7.65;;;4.90;99.90;;;;;;5032158;28;20049;-81
2023/12/23 03:30:34;;;;;;;9.02;8.52;;;4.90;99.90;;;;;;5015928;28;20049;-80
2023/12/23 03:33:00;;;;;;;9.32;8.82;;;4.80;99.90;;;;;;5032929;28;20037;-80
2023/12/23 03:35:26;;;;;;;8.90;8.50;;;4.80;99.90;;;;;;5032885;28;20047;-80
2023/12/23 03:37:52;;;;;;;10.65;9.88;;;4.60;99.90;;;;;;5033060;28;20456;-79
2023/12/23 03:40:17;;;;;;;11.00;10.32;;;4.60;99.90;;;;;;5032220;28;20057;-80
2023/12/23 03:42:43;;;;;;;15.20;9.18;;;4.60;99.90;;;;;;5032498;28;20140;-80
2023/12/23 03:45:09;;;;;;;10.20;9.70;;;5.00;99.90;;;;;;5032069;28;20378;-81
2023/12/23 03:47:35;;;;;;;10.30;9.57;;;4.50;99.90;;;;;;5016457;28;20045;-81
2023/12/23 03:50:01;;;;;;;10.63;9.68;;;4.60;99.90;;;;;;5031776;28;20038;-80
2023/12/23 03:52:27;;;;;;;10.65;9.85;;;4.60;99.90;;;;;;5031750;28;20061;-80
2023/12/23 03:54:53;;;;;;;11.43;10.63;;;4.60;99.90;;;;;;5032955;28;20068;-80
2023/12/23 03:57:18;;;;;;;10.85;9.90;;;4.90;99.90;;;;;;5031803;28;20474;-80
2023/12/23 03:59:44;;;;;;;10.43;9.82;;;4.50;99.90;;;;;;5031928;28;20136;-80
2023/12/23 04:02:10;;;;;;;10.18;9.60;;;4.60;99.90;;;;;;5015571;28;20048;-80
2023/12/23 04:04:39;;;;;;;11.25;10.45;;;4.60;99.90;;;;;;5034344;28;20049;-79
2023/12/23 04:07:05;;;;;;;10.98;10.10;;;4.60;99.90;;;;;;5035451;28;20049;-79
2023/12/23 04:09:30;;;;;;;12.30;11.20;;;4.60;99.90;;;;;;5003265;28;20049;-79
2023/12/23 04:11:56;;;;;;;11.32;10.60;;;5.00;99.90;;;;;;5035300;28;20053;-79
2023/12/23 04:14:22;;;;;;;11.23;10.73;;;4.80;99.90;;;;;;5035341;28;20048;-80
2023/12/23 04:16:48;;;;;;;12.40;11.70;;;4.70;99.90;;;;;;5035986;28;20056;-80
2023/12/23 04:19:13;;;;;;;11.43;10.85;;;4.60;99.90;;;;;;5019552;28;20049;-80
2023/12/23 04:21:39;;;;;;;11.20;10.60;;;4.60;99.90;;;;;;5034984;28;20049;-80
2023/12/23 04:24:06;;;;;;;11.57;10.88;;;4.90;99.90;;;;;;5035048;28;20474;-80
2023/12/23 04:26:32;;;;;;;12.30;11.60;;;4.60;99.90;;;;;;5035133;28;20084;-80
2023/12/23 04:28:58;;;;;;;11.85;11.25;;;4.60;99.90;;;;;;5036494;28;20168;-81
2023/12/23 04:31:24;;;;;;;12.27;11.65;;;4.60;99.90;;;;;;5019423;28;20064;-80
2023/12/23 04:33:49;;;;;;;12.48;11.77;;;4.60;99.90;;;;;;5034839;28;20501;-81
2023/12/23 04:36:17;;;;;;;13.57;12.45;;;4.60;99.90;;;;;;5018457;28;20048;-80
2023/12/23 04:38:43;;;;;;;13.20;12.63;;;4.60;99.90;;;;;;5002271;28;20501;-80
2023/12/23 04:41:09;;;;;;;13.73;12.80;;;4.70;99.90;;;;;;5034977;28;20528;-81
2023/12/23 04:43:35;;;;;;;13.38;12.77;;;4.70;99.90;;;;;;5018600;28;20097;-81
2023/12/23 04:46:02;;;;;;;14.35;13.48;;;4.70;99.90;;;;;;5035222;28;20458;-81
2023/12/23 04:48:28;;;;;;;13.20;12.70;;;4.60;99.90;;;;;;5034587;28;20055;-81
2023/12/23 04:50:54;;;;;;;13.40;12.63;;;4.70;99.90;;;;;;5018407;28;20140;-81
2023/12/23 04:53:24;;;;;;;14.82;13.75;;;4.70;99.90;;;;;;5034788;28;20466;-81
2023/12/23 04:55:50;;;;;;;14.20;13.50;;;4.70;99.90;;;;;;5035852;28;20080;-81
2023/12/23 04:58:16;;;;;;;13.98;13.38;;;4.70;99.90;;;;;;5001466;28;20138;-81
2023/12/23 05:00:42;;;;;;;13.63;13.02;;;4.70;99.90;;;;;;5018235;28;20134;-81
2023/12/23 05:03:08;;;;;;;13.07;12.38;;;5.00;99.90;;;;;;5017854;28;20088;-81
2023/12/23 05:05:34;;;;;;;13.68;12.93;;;4.80;99.90;;;;;;5017786;28;20058;-81
2023/12/23 05:07:59;;;;;;;12.95;12.45;;;4.70;99.90;;;;;;5034265;28;20047;-81
2023/12/23 05:10:25;;;;;;;13.30;12.50;;;4.70;99.90;;;;;;5034221;28;20046;-81
2023/12/23 05:12:51;;;;;;;13.68;12.95;;;4.70;99.90;;;;;;5034236;28;20461;-81
2023/12/23 05:15:16;;;;;;;14.63;13.82;;;4.70;99.90;;;;;;5033785;28;20053;-81
2023/12/23 05:17:42;;;;;;;14.60;13.65;;;4.80;99.90;;;;;;5034169;28;20053;-81
2023/12/23 05:20:10;;;;;;;15.10;14.10;;;4.70;99.90;;;;;;5017621;28;20049;-81
2023/12/23 05:22:36;;;;;;;14.88;14.20;;;4.70;99.90;;;;;;5034880;28;20083;-81
2023/12/23 05:25:02;;;;;;;15.75;14.98;;;4.80;99.90;;;;;;5034892;28;20402;-81
2023/12/23 05:27:28;;;;;;;15.00;14.18;;;4.80;99.90;;;;;;5033950;28;20128;-81
2023/12/23 05:29:55;;;;;;;15.57;14.82;;;4.80;99.90;;;;;;5033676;28;20184;-81
2023/12/23 05:32:21;;;;;;;15.60;14.98;;;4.80;99.90;;;;;;5017667;28;20061;-81
2023/12/23 05:34:47;;;;;;;15.45;14.85;;;5.10;99.90;;;;;;5033535;28;20478;-80
2023/12/23 05:37:12;;;;;;;15.18;14.57;;;4.80;99.90;;;;;;5017332;28;20049;-80
2023/12/23 05:39:39;;;;;;;14.65;13.95;;;4.80;99.90;;;;;;5034508;28;20128;-80
2023/12/23 05:42:05;;;;;;;14.73;13.82;;;4.80;99.90;;;;;;5033148;28;20136;-80
2023/12/23 05:44:30;;;;;;;14.50;13.80;;;4.90;99.90;;;;;;5033593;28;20045;-81
2023/12/23 05:46:56;;;;;;;14.65;13.95;;;4.80;99.90;;;;;;5017130;28;20131;-80
2023/12/23 05:49:22;;;;;;;15.30;14.70;;;4.90;99.90;;;;;;5016942;28;20394;-80
2023/12/23 05:51:48;;;;;;;15.38;14.77;;;4.90;99.90;;;;;;5017240;28;20501;-81
2023/12/23 05:54:13;;;;;;;14.80;14.20;;;4.90;99.90;;;;;;5000627;28;20088;-81
2023/12/23 05:56:39;;;;;;;15.45;14.65;;;4.90;99.90;;;;;;5033145;28;20053;-80
2023/12/23 05:59:05;;;;;;;14.85;14.25;;;5.10;99.90;;;;;;5017011;28;20053;-80
2023/12/23 06:01:30;;;;;;;14.75;14.05;;;4.90;99.90;;;;;;5016688;28;20045;-80
2023/12/23 06:03:56;;;;;;;16.65;15.75;;;5.10;99.90;;;;;;5017021;28;20050;-81
2023/12/23 06:06:22;;;;;;;15.88;15.27;;;4.90;99.90;;;;;;5034120;28;20045;-81
2023/12/23 06:08:47;;;;;;;15.18;14.48;;;4.90;99.90;;;;;;5016570;28;20089;-81
2023/12/23 06:11:13;;;;;;;16.02;15.02;;;4.90;99.90;;;;;;5001187;28;20433;-81
2023/12/23 06:13:40;;;;;;;16.38;15.55;;;4.90;99.90;;;;;;5016629;28;20064;-81
2023/12/23 06:16:06;;;;;;;16.80;16.10;;;5.10;99.90;;;;;;5016793;28;20179;-81
2023/12/23 06:18:33;;;;;;;16.02;15.32;;;4.90;99.90;;;;;;5033829;28;20054;-81
2023/12/23 06:20:59;;;;;;;15.93;15.32;;;5.00;99.90;;;;;;5033742;28;20117;-81
2023/12/23 06:23:25;;;;;;;17.88;17.13;;;5.00;99.90;;;;;;5033666;28;20073;-81
2023/12/23 06:25:50;;;;;;;18.75;18.05;;;5.00;99.90;;;;;;5032715;28;20150;-81
2023/12/23 06:28:16;;;;;;;17.92;16.90;;;5.00;99.90;;;;;;5000290;28;20060;-81
2023/12/23 06:30:42;;;;;;;17.73;16.92;;;5.00;99.90;;;;;;5017194;28;20045;-81
2023/12/23 06:33:08;;;;;;;17.08;16.45;;;4.90;99.90;;;;;;5032834;28;20072;-81
2023/12/23 06:35:33;;;;;;;17.35;16.65;;;4.90;99.90;;;;;;5033409;28;20049;-81
2023/12/23 06:37:59;;;;;;;19.08;18.27;;;5.00;99.90;;;;;;5016374;28;20374;-81
2023/12/23 06:40:29;;;;;;;17.38;16.77;;;4.90;99.90;;;;;;5016066;28;20048;-80
2023/12/23 06:42:55;;;;;;;18.33;17.63;;;4.90;99.90;;;;;;5017097;28;20061;-82
2023/12/23 06:45:20;;;;;;;17.35;16.65;;;5.00;99.90;;;;;;5032668;28;20045;-79
2023/12/23 06:47:46;;;;;;;18.25;17.55;;;4.90;99.90;;;;;;5032649;28;20390;-79
2023/12/23 06:50:12;;;;;;;17.75;17.05;;;5.10;99.90;;;;;;5032253;28;20091;-79
2023/12/23 06:52:38;;;;;;;17.45;16.85;;;5.00;99.90;;;;;;5033519;28;20132;-78
2023/12/23 06:55:04;;;;;;;18.73;18.02;;;5.00;99.90;;;;;;5033529;28;20085;-79
2023/12/23 06:57:29;;;;;;;17.65;17.05;;;4.90;99.90;;;;;;5033494;28;20046;-79
2023/12/23 06:59:58;;;;;;;17.95;17.33;;;5.10;99.90;;;;;;5033208;28;20095;-79
2023/12/23 07:02:24;;;;;;;19.02;18.33;;;4.90;99.90;;;;;;5032817;28;20053;-78
2023/12/23 07:04:50;;;;;;;18.30;17.70;;;4.90;99.90;;;;;;5032307;28;20045;-79
2023/12/23 07:07:16;;;;;;;19.17;18.48;;;4.90;99.90;;;;;;5033152;28;20042;-78
2023/12/23 07:09:42;;;;;;;19.02;18.33;;;4.90;99.90;;;;;;5033391;28;20133;-79
2023/12/23 07:12:08;;;;;;;19.85;19.05;;;5.00;99.90;;;;;;5033378;28;20045;-78
2023/12/23 07:14:34;;;;;;;20.50;19.80;;;4.90;99.90;;;;;;5033369;28;20160;-79
2023/12/23 07:17:00;;;;;;;21.00;20.30;;;5.10;99.90;;;;;;5032415;28;20112;-78
2023/12/23 07:19:25;;;;;;;20.73;20.02;;;4.90;99.90;;;;;;5033714;28;20434;-77
2023/12/23 07:21:53;;;;;;;22.13;21.33;;;4.90;99.90;;;;;;5032965;28;20053;-78
2023/12/23 07:24:22;;;;;;;20.80;20.00;;;4.80;99.90;;;;;;5033286;28;20057;-79
2023/12/23 07:26:48;;;;;;;21.13;20.42;;;4.90;99.90;;;;;;5033233;28;20042;-83
2023/12/23 07:29:13;;;;;;;21.25;20.55;;;4.80;99.90;;;;;;5033186;28;20049;-82
2023/12/23 07:31:39;;;;;;;20.40;19.70;;;4.80;99.90;;;;;;5032198;28;20425;-83
2023/12/23 07:34:05;;;;;;;20.55;19.85;;;4.80;99.90;;;;;;5032131;28;20099;-84
2023/12/23 07:36:31;;;;;;;21.33;20.63;;;4.80;99.90;;;;;;5015127;28;20049;-84
2023/12/23 07:38:57;;;;;;;20.80;20.10;;;4.80;99.90;;;;;;5018736;28;20049;-85
2023/12/23 07:41:22;;;;;;;20.83;20.13;;;4.70;99.90;;;;;;5019539;28;20053;-83
2023/12/23 07:43:49;;;;;;;20.88;20.17;;;4.90;99.90;;;;;;5036026;28;20064;-82
2023/12/23 07:46:15;;;;;;;22.40;21.58;;;4.80;99.90;;;;;;5020066;28;20052;-81
2023/12/23 07:48:41;;;;;;;22.88;22.08;;;4.60;99.90;;;;;;5035866;28;20462;-82
2023/12/23 07:51:08;;;;;;;22.63;21.83;;;4.70;99.90;;;;;;5019197;28;20080;-82
2023/12/23 07:53:33;;;;;;;21.77;20.98;;;4.60;99.90;;;;;;5035691;28;20096;-82
2023/12/23 07:55:59;;;;;;;21.55;20.85;;;4.60;99.90;;;;;;5035660;28;20470;-83
2023/12/23 07:58:25;;;;;;;22.67;21.88;;;4.50;99.90;;;;;;5036544;28;20050;-84
2023/12/23 08:00:50;;;;;;;25.70;24.60;;;4.50;99.90;;;;;;5035557;28;20567;-81
2023/12/23 08:03:16;;;;;;;25.20;24.38;;;4.70;99.90;;;;;;5019077;28;20493;-82
2023/12/23 08:05:42;;;;;;;24.50;23.70;;;4.50;99.90;;;;;;5035227;28;20041;-82
2023/12/23 08:08:09;;;;;;;25.27;24.38;;;4.50;99.90;;;;;;5019623;28;20056;-82
2023/12/23 08:10:35;;;;;;;24.98;24.08;;;4.70;99.90;;;;;;5034974;28;20045;-81
2023/12/23 08:13:01;;;;;;;25.00;24.00;;;4.50;99.90;;;;;;5035280;28;20053;-82
2023/12/23 08:15:27;;;;;;;23.83;22.92;;;4.50;99.90;;;;;;5035397;28;20056;-81
2023/12/23 08:17:52;;;;;;;23.67;22.88;;;4.50;99.90;;;;;;5019131;28;20482;-82
2023/12/23 08:20:18;;;;;;;24.80;23.95;;;4.50;99.90;;;;;;5035179;28;20490;-82
2023/12/23 08:22:44;;;;;;;26.65;25.55;;;4.90;99.90;;;;;;5035446;28;20049;-82
2023/12/23 08:25:10;;;;;;;25.33;24.42;;;4.50;99.90;;;;;;5036180;28;20052;-82
2023/12/23 08:27:39;;;;;;;26.20;25.27;;;4.50;99.90;;;;;;5035792;28;20084;-82
2023/12/23 08:30:07;;;;;;;25.67;24.73;;;4.50;99.90;;;;;;5034828;28;20049;-81
2023/12/23 08:32:32;;;;;;;27.30;26.30;;;4.50;99.90;;;;;;5034439;28;20478;-83
2023/12/23 08:34:58;;;;;;;27.95;26.85;;;4.50;99.90;;;;;;5034647;28;20128;-81
2023/12/23 08:37:24;;;;;;;25.70;24.80;;;4.50;99.90;;;;;;5018071;28;20466;-82
2023/12/23 08:39:50;;;;;;;26.60;25.70;;;4.50;99.90;;;;;;5034523;28;20045;-82
2023/12/23 08:42:16;;;;;;;27.27;26.38;;;4.90;99.90;;;;;;4986271;28;20057;-82
2023/12/23 08:44:41;;;;;;;27.60;26.70;;;5.00;99.90;;;;;;5017828;28;20048;-82
2023/12/23 08:47:07;;;;;;;26.92;26.02;;;4.50;99.90;;;;;;5018950;28;20107;-81
2023/12/23 08:49:33;;;;;;;26.48;25.58;;;4.50;99.90;;;;;;5033632;28;20470;-82
2023/12/23 08:51:59;;;;;;;25.85;24.98;;;4.50;99.90;;;;;;5034413;28;20049;-82
2023/12/23 08:54:24;;;;;;;28.48;27.48;;;4.60;99.90;;;;;;5018071;28;20057;-82
2023/12/23 08:56:50;;;;;;;26.15;25.15;;;4.70;99.90;;;;;;5034500;28;20076;-82
2023/12/23 08:59:16;;;;;;;25.95;24.95;;;4.50;99.90;;;;;;5018821;28;20045;-82
2023/12/23 09:01:43;;;;;;;26.95;26.05;;;4.50;99.90;;;;;;5034459;28;20096;-82
2023/12/23 09:04:09;;;;;;;25.88;24.98;;;4.60;99.90;;;;;;5017539;28;20103;-82
2023/12/23 09:06:35;;;;;;;27.60;26.67;;;4.70;99.90;;;;;;5001426;28;20045;-82
2023/12/23 09:09:01;;;;;;;28.15;27.25;;;4.50;99.90;;;;;;5034110;28;20128;-82
2023/12/23 09:11:27;;;;;;;29.50;28.50;;;4.60;99.90;;;;;;5034235;28;20099;-81
2023/12/23 09:13:53;;;;;;;28.45;27.45;;;4.90;99.90;;;;;;5034281;28;20041;-82
2023/12/23 09:16:18;;;;;;;27.35;26.35;;;4.70;99.90;;;;;;5018414;28;20056;-81
2023/12/23 09:18:44;;;;;;;26.45;25.55;;;4.70;99.90;;;;;;5034865;28;20095;-82
2023/12/23 09:21:10;;;;;;;26.67;25.77;;;4.70;99.90;;;;;;5018448;28;20478;-82
2023/12/23 09:23:35;;;;;;;26.60;25.60;;;5.10;99.90;;;;;;5017899;28;20089;-82
2023/12/23 09:26:01;;;;;;;24.83;24.02;;;4.70;99.90;;;;;;5017884;28;20048;-82
2023/12/23 09:28:27;;;;;;;26.50;25.60;;;4.70;99.90;;;;;;5033884;28;20045;-82
2023/12/23 09:30:52;;;;;;;26.05;25.15;;;4.60;99.90;;;;;;5001045;28;20180;-82
2023/12/23 09:33:18;;;;;;;29.45;28.25;;;4.70;99.90;;;;;;5033691;28;20053;-81
2023/12/23 09:35:44;;;;;;;29.65;28.55;;;4.70;99.90;;;;;;5017221;28;20045;-81
2023/12/23 09:38:12;;;;;;;28.15;27.15;;;4.70;99.90;;;;;;5034537;28;20059;-82
2023/12/23 09:40:38;;;;;;;29.65;28.65;;;4.70;99.90;;;;;;5033408;28;20057;-81
2023/12/23 09:43:08;;;;;;;30.38;29.27;;;4.90;99.90;;;;;;5034534;28;20416;-82
2023/12/23 09:45:36;;;;;;;30.50;29.42;;;4.90;99.90;;;;;;5033410;28;20128;-82
2023/12/23 09:48:03;;;;;;;29.83;28.83;;;4.80;99.90;;;;;;5034376;28;20038;-81
2023/12/23 09:50:28;;;;;;;28.42;27.52;;;4.90;99.90;;;;;;5016982;28;20176;-81
2023/12/23 09:52:56;;;;;;;28.85;27.85;;;4.80;99.90;;;;;;5033775;28;20481;-81
2023/12/23 09:55:24;;;;;;;28.73;27.73;;;4.80;99.90;;;;;;5033151;28;20508;-81
2023/12/23 09:57:49;;;;;;;28.58;27.58;;;4.90;99.90;;;;;;5033372;28;20053;-82
2023/12/23 10:00:15;;;;;;;30.17;29.17;;;4.90;99.90;;;;;;5035152;28;20046;-82
2023/12/23 10:02:41;;;;;;;28.27;27.27;;;4.90;99.90;;;;;;5033243;28;20539;-82
2023/12/23 10:05:07;;;;;;;28.15;27.23;;;4.80;99.90;;;;;;5016960;28;20057;-82
2023/12/23 10:07:33;;;;;;;27.77;26.88;;;4.80;99.90;;;;;;5033285;28;20045;-83
2023/12/23 10:09:59;;;;;;;29.00;28.00;;;4.90;99.90;;;;;;5000975;28;20359;-82
2023/12/23 10:12:24;;;;;;;28.70;27.70;;;4.80;99.90;;;;;;5032800;28;20558;-82
2023/12/23 10:14:50;;;;;;;29.35;28.35;;;4.90;99.90;;;;;;5016665;28;20048;-82
2023/12/23 10:17:19;;;;;;;28.35;27.45;;;4.90;99.90;;;;;;5016956;28;20053;-82
2023/12/23 10:19:47;;;;;;;27.20;26.30;;;4.90;99.90;;;;;;5016562;28;20471;-82
2023/12/23 10:22:16;;;;;;;29.65;28.65;;;5.00;99.90;;;;;;5016563;28;20051;-82
2023/12/23 10:24:41;;;;;;;29.02;28.02;;;4.80;99.90;;;;;;5016851;28;20128;-82
2023/12/23 10:27:07;;;;;;;28.42;27.52;;;4.80;99.90;;;;;;5032899;28;20120;-82
2023/12/23 10:29:35;;;;;;;28.27;27.38;;;4.80;99.90;;;;;;5033402;28;20433;-82
2023/12/23 10:32:04;;;;;;;29.17;28.17;;;4.80;99.90;;;;;;5032521;28;20103;-81
2023/12/23 10:34:50;;;;;;;29.90;28.90;;;4.80;99.90;;;;;;5033532;28;20037;-82
2023/12/23 10:37:17;;;;;;;31.23;30.13;;;4.80;99.90;;;;;;5033123;28;20045;-82
2023/12/23 10:39:55;;;;;;;32.15;31.05;;;4.80;99.90;;;;;;5033001;28;20512;-81
2023/12/23 10:42:23;;;;;;;30.48;29.48;;;4.80;99.90;;;;;;5015927;28;20061;-82
2023/12/23 10:44:51;;;;;;;32.45;31.35;;;4.80;99.90;;;;;;5033496;28;20114;-81
2023/12/23 10:47:17;;;;;;;31.35;30.25;;;4.80;99.90;;;;;;5032674;28;20057;-81
2023/12/23 10:49:47;;;;;;;31.25;30.15;;;5.10;99.90;;;;;;5015959;28;20048;-81
2023/12/23 10:52:14;;;;;;;32.08;30.98;;;5.30;99.90;;;;;;5033612;28;20054;-81
2023/12/23 10:54:40;;;;;;;31.38;30.27;;;4.90;99.90;;;;;;5032595;28;20045;-81
2023/12/23 10:57:08;;;;;;;31.45;30.35;;;4.90;99.90;;;;;;5016129;28;20164;-82
2023/12/23 10:59:34;;;;;;;30.65;29.65;;;5.00;99.90;;;;;;5032774;28;20060;-82
2023/12/23 11:02:07;;;;;;;30.55;29.45;;;5.10;99.90;;;;;;5033004;28;20041;-81
2023/12/23 11:04:34;;;;;;;31.77;30.67;;;5.20;99.90;;;;;;5017014;28;20484;-81
2023/12/23 11:07:02;;;;;;;30.15;29.05;;;5.20;99.90;;;;;;5032409;28;20042;-82
2023/12/23 11:09:30;;;;;;;30.35;29.35;;;5.50;99.90;;;;;;5016204;28;20497;-81
2023/12/23 11:11:56;;;;;;;30.10;29.00;;;5.20;99.90;;;;;;5032411;28;20046;-81
2023/12/23 11:14:23;;;;;;;30.48;29.25;;;5.30;99.90;;;;;;5036821;28;20053;-81
2023/12/23 11:16:50;;;;;;;28.05;26.95;;;5.20;99.90;;;;;;5020031;28;20053;-81
2023/12/23 11:19:15;;;;;;;28.88;27.65;;;5.30;99.90;;;;;;5020006;28;20085;-81
2023/12/23 11:21:41;;;;;;;28.15;27.05;;;5.40;99.90;;;;;;5036340;28;20087;-81
2023/12/23 11:24:36;;;;;;;27.70;26.67;;;5.40;99.90;;;;;;5036339;28;20056;-81
2023/12/23 11:27:01;;;;;;;26.70;25.48;;;5.40;99.90;;;;;;5036054;28;20049;-82
2023/12/23 11:29:27;;;;;;;24.20;23.23;;;5.40;99.90;;;;;;5036032;28;20037;-82
2023/12/23 11:32:13;;;;;;;23.35;22.13;;;5.50;99.90;;;;;;5036947;28;20046;-81
2023/12/23 11:34:40;;;;;;;21.58;20.67;;;5.50;99.90;;;;;;5037633;28;20087;-82
2023/12/23 11:37:06;;;;;;;21.27;20.48;;;5.70;99.90;;;;;;5036093;28;20049;-82
2023/12/23 11:39:31;;;;;;;25.88;24.95;;;5.60;99.90;;;;;;5036895;28;20056;-82
2023/12/23 11:41:59;;;;;;;25.45;24.55;;;5.50;99.90;;;;;;5019322;28;20386;-83
2023/12/23 11:44:25;;;;;;;25.35;24.45;;;5.50;99.90;;;;;;5035623;28;20050;-82
2023/12/23 11:46:54;;;;;;;25.25;24.35;;;5.50;99.90;;;;;;5035878;28;20111;-82
2023/12/23 11:49:20;;;;;;;25.45;24.55;;;5.80;99.90;;;;;;5035694;28;20045;-82
2023/12/23 11:51:45;;;;;;;25.77;24.88;;;5.50;99.90;;;;;;5036361;28;20050;-82
2023/12/23 11:54:12;;;;;;;26.25;25.30;;;5.60;99.90;;;;;;5036811;28;20045;-82
2023/12/23 11:56:39;;;;;;;26.35;25.25;;;5.60;99.90;;;;;;5036476;28;20056;-82
2023/12/23 11:59:05;;;;;;;26.77;25.77;;;5.90;99.90;;;;;;5035377;28;20084;-82
2023/12/23 12:01:33;;;;;;;27.42;26.42;;;5.60;99.90;;;;;;5035570;28;20133;-82
2023/12/23 12:03:58;;;;;;;28.42;27.13;;;5.60;99.90;;;;;;5035318;28;20482;-82
2023/12/23 12:06:25;;;;;;;31.88;30.67;;;5.60;99.90;;;;;;5035418;28;20076;-80
2023/12/23 12:08:52;;;;;;;29.75;28.45;;;5.90;99.90;;;;;;5036197;28;20045;-80
2023/12/23 12:11:18;;;;;;;28.55;27.33;;;6.40;99.90;;;;;;5036206;28;20060;-81
2023/12/23 12:13:45;;;;;;;28.85;26.95;;;6.70;99.90;;;;;;5018988;28;20466;-80
2023/12/23 12:16:11;;;;;;;23.80;22.45;;;7.00;99.90;;;;;;5036120;28;20127;-80
2023/12/23 12:18:40;;;;;;;22.25;20.58;;;7.30;99.90;;;;;;5018872;28;20049;-79
2023/12/23 12:21:06;;;;;;;20.48;19.17;;;7.30;99.90;;;;;;5035522;28;20080;-81
2023/12/23 12:23:31;;;;;;;18.30;17.48;;;7.40;99.90;;;;;;5035197;28;20041;-80
2023/12/23 12:25:58;;;;;;;17.65;16.75;;;7.60;99.90;;;;;;5034755;28;20446;-78
2023/12/23 12:28:24;;;;;;;18.02;16.67;;;7.70;99.90;;;;;;5035908;28;20363;-78
2023/12/23 12:30:50;;;;;;;18.80;17.55;;;7.80;99.90;;;;;;5034411;28;20057;-78
2023/12/23 12:33:16;;;;;;;17.75;16.48;;;7.80;99.90;;;;;;5018856;28;20041;-79
2023/12/23 12:35:41;;;;;;;16.95;15.35;;;7.80;99.90;;;;;;5018419;28;20450;-80
2023/12/23 12:38:10;;;;;;;16.45;15.27;;;7.90;99.90;;;;;;5035257;28;20045;-79